createdAt,value
2022-10-20T00:00:39.760Z,10.85
2022-10-20T00:03:09.285Z,10.76
2022-10-20T00:05:40.192Z,10.76
2022-10-20T00:08:09.562Z,10.71
2022-10-20T00:10:37.536Z,10.73
2022-10-20T00:13:05.630Z,10.69
2022-10-20T00:15:33.709Z,10.71
2022-10-20T00:18:01.667Z,10.72
2022-10-20T00:20:29.649Z,10.74
2022-10-20T00:22:57.629Z,10.78
2022-10-20T00:25:27.046Z,10.84
2022-10-20T00:27:54.996Z,10.90
2022-10-20T00:30:25.034Z,10.91
2022-10-20T00:32:53.828Z,10.92
2022-10-20T00:35:21.829Z,10.87
2022-10-20T00:37:49.812Z,10.93
2022-10-20T00:40:18.030Z,10.94
2022-10-20T00:42:47.923Z,10.92
2022-10-20T00:45:17.307Z,10.77
2022-10-20T00:47:48.801Z,10.61
2022-10-20T00:50:20.384Z,10.38
2022-10-20T00:52:49.748Z,10.30
2022-10-20T00:55:21.734Z,10.31
2022-10-20T00:57:53.233Z,10.30
2022-10-20T01:00:21.846Z,10.26
2022-10-20T01:02:51.506Z,10.28
2022-10-20T01:05:20.001Z,10.26
2022-10-20T01:07:48.020Z,10.06
2022-10-20T01:10:16.934Z,10.09
2022-10-20T01:12:52.912Z,9.96
2022-10-20T01:15:32.772Z,9.98
2022-10-20T01:18:13.570Z,9.96
2022-10-20T01:21:14.920Z,9.85
2022-10-20T01:23:56.682Z,9.80
2022-10-20T01:26:54.120Z,9.81
2022-10-20T01:29:28.643Z,9.81
2022-10-20T01:32:06.124Z,9.82
2022-10-20T01:34:40.961Z,9.76
2022-10-20T01:37:28.299Z,9.75
2022-10-20T01:40:13.309Z,9.66
2022-10-20T01:42:43.518Z,9.64
2022-10-20T01:45:16.144Z,9.54
2022-10-20T01:47:46.300Z,9.49
2022-10-20T01:50:16.863Z,9.38
2022-10-20T01:52:44.795Z,9.34
2022-10-20T01:55:14.846Z,9.35
2022-10-20T01:57:55.269Z,9.33
2022-10-20T02:00:25.265Z,9.29
2022-10-20T02:03:11.727Z,9.30
2022-10-20T02:05:54.061Z,9.28
2022-10-20T02:08:29.557Z,9.24
2022-10-20T02:11:00.319Z,9.15
2022-10-20T02:13:31.671Z,9.12
2022-10-20T02:16:05.895Z,9.11
2022-10-20T02:18:39.957Z,9.07
2022-10-20T02:21:08.688Z,9.05
2022-10-20T02:23:39.542Z,9.02
2022-10-20T02:26:09.764Z,8.99
2022-10-20T02:28:41.942Z,8.98
2022-10-20T02:31:12.130Z,8.96
2022-10-20T02:33:41.181Z,8.97
2022-10-20T02:36:16.769Z,8.90
2022-10-20T02:38:44.849Z,8.99
2022-10-20T02:41:12.839Z,8.91
2022-10-20T02:43:40.807Z,8.85
2022-10-20T02:46:08.893Z,8.80
2022-10-20T02:48:38.391Z,8.76
2022-10-20T02:51:07.450Z,8.74
2022-10-20T02:53:35.471Z,8.73
2022-10-20T02:56:03.370Z,8.63
2022-10-20T02:58:31.381Z,8.48
2022-10-20T03:00:59.413Z,8.46
2022-10-20T03:03:27.584Z,8.41
2022-10-20T03:05:57.004Z,8.38
2022-10-20T03:08:25.058Z,8.30
2022-10-20T03:10:53.017Z,8.35
2022-10-20T03:13:20.925Z,8.25
2022-10-20T03:15:48.946Z,8.30
2022-10-20T03:18:16.901Z,8.24
2022-10-20T03:20:45.029Z,8.14
2022-10-20T03:23:17.676Z,8.16
2022-10-20T03:25:48.032Z,8.07
2022-10-20T03:28:15.982Z,7.98
2022-10-20T03:30:46.438Z,7.93
2022-10-20T03:33:14.390Z,7.96
2022-10-20T03:35:42.287Z,7.95
2022-10-20T03:38:10.270Z,7.76
2022-10-20T03:40:39.593Z,7.82
2022-10-20T03:43:07.515Z,7.82
2022-10-20T03:45:35.563Z,7.81
2022-10-20T03:48:03.758Z,7.71
2022-10-20T03:50:31.735Z,7.65
2022-10-20T03:53:00.040Z,7.69
2022-10-20T03:55:27.967Z,7.66
2022-10-20T03:57:57.416Z,7.66
2022-10-20T04:00:25.420Z,7.58
2022-10-20T04:02:53.769Z,7.53
2022-10-20T04:05:22.392Z,7.53
2022-10-20T04:07:50.302Z,7.49
2022-10-20T04:10:18.850Z,7.44
2022-10-20T04:12:46.818Z,7.35
2022-10-20T04:15:18.477Z,7.23
2022-10-20T04:17:46.550Z,7.28
2022-10-20T04:20:14.500Z,7.24
2022-10-20T04:22:42.421Z,7.27
2022-10-20T04:25:12.097Z,7.22
2022-10-20T04:27:40.124Z,7.21
2022-10-20T04:30:09.433Z,7.18
2022-10-20T04:32:38.790Z,7.21
2022-10-20T04:35:07.593Z,7.13
2022-10-20T04:37:35.982Z,7.17
2022-10-20T04:40:04.858Z,7.19
2022-10-20T04:42:33.189Z,7.19
2022-10-20T04:45:01.138Z,7.23
2022-10-20T04:47:33.469Z,7.20
2022-10-20T04:50:03.002Z,7.24
2022-10-20T04:52:31.008Z,7.30
2022-10-20T04:54:58.992Z,7.30
2022-10-20T04:57:27.176Z,7.32
2022-10-20T04:59:55.153Z,7.27
2022-10-20T05:02:23.100Z,7.31
2022-10-20T05:04:50.967Z,7.29
2022-10-20T05:07:20.285Z,7.23
2022-10-20T05:09:49.428Z,7.19
2022-10-20T05:12:17.149Z,7.17
2022-10-20T05:14:45.121Z,7.11
2022-10-20T05:17:13.051Z,7.09
2022-10-20T05:19:40.992Z,7.14
2022-10-20T05:22:08.908Z,7.17
2022-10-20T05:24:38.582Z,7.22
2022-10-20T05:27:06.532Z,7.21
2022-10-20T05:29:34.579Z,7.25
2022-10-20T05:32:02.594Z,7.29
2022-10-20T05:34:30.719Z,7.25
2022-10-20T05:36:58.693Z,7.29
2022-10-20T05:39:27.036Z,7.29
2022-10-20T05:41:56.380Z,7.28
2022-10-20T05:44:24.491Z,7.19
2022-10-20T05:46:52.389Z,7.23
2022-10-20T05:49:20.317Z,7.25
2022-10-20T05:51:48.792Z,7.25
2022-10-20T05:54:17.152Z,7.33
2022-10-20T05:56:45.482Z,7.37
2022-10-20T05:59:15.087Z,7.33
2022-10-20T06:01:49.038Z,7.33
2022-10-20T06:04:19.018Z,7.41
2022-10-20T06:06:49.003Z,7.37
2022-10-20T06:09:17.715Z,7.34
2022-10-20T06:11:45.637Z,7.32
2022-10-20T06:14:15.432Z,7.37
2022-10-20T06:16:43.400Z,7.40
2022-10-20T06:19:11.689Z,7.45
2022-10-20T06:21:39.726Z,7.49
2022-10-20T06:24:08.253Z,7.58
2022-10-20T06:26:37.481Z,7.68
2022-10-20T06:29:05.845Z,7.78
2022-10-20T06:31:38.976Z,7.95
2022-10-20T06:34:08.418Z,8.05
2022-10-20T06:36:37.078Z,8.14
2022-10-20T06:39:07.547Z,8.21
2022-10-20T06:41:35.726Z,8.37
2022-10-20T06:44:03.998Z,8.50
2022-10-20T06:46:33.973Z,8.63
2022-10-20T06:49:03.892Z,8.80
2022-10-20T06:51:32.981Z,8.97
2022-10-20T06:54:01.911Z,9.14
2022-10-20T06:56:31.432Z,9.42
2022-10-20T06:59:00.492Z,9.65
2022-10-20T07:01:30.211Z,9.85
2022-10-20T07:04:00.292Z,10.02
2022-10-20T07:06:31.176Z,10.29
2022-10-20T07:09:00.096Z,10.52
2022-10-20T07:11:30.283Z,10.74
2022-10-20T07:14:00.081Z,10.87
2022-10-20T07:16:29.106Z,11.13
2022-10-20T07:18:57.932Z,11.37
2022-10-20T07:21:32.355Z,11.68
2022-10-20T07:24:09.761Z,12.01
2022-10-20T07:26:41.586Z,11.92
2022-10-20T07:29:10.643Z,12.19
2022-10-20T07:31:42.628Z,12.35
2022-10-20T07:34:24.884Z,12.65
2022-10-20T07:36:55.247Z,13.01
2022-10-20T07:39:25.389Z,13.34
2022-10-20T07:41:56.347Z,13.58
2022-10-20T07:44:24.647Z,13.86
2022-10-20T07:46:52.632Z,14.10
2022-10-20T07:49:43.404Z,14.30
2022-10-20T07:52:10.700Z,14.78
2022-10-20T07:54:40.016Z,15.12
2022-10-20T07:57:10.509Z,14.98
2022-10-20T07:59:42.594Z,15.19
2022-10-20T08:02:13.595Z,15.42
2022-10-20T08:04:44.806Z,15.77
2022-10-20T08:07:16.591Z,16.04
2022-10-20T08:09:47.886Z,16.06
2022-10-20T08:12:15.923Z,16.42
2022-10-20T08:17:46.865Z,16.82
2022-10-20T08:20:17.106Z,17.23
2022-10-20T08:22:47.361Z,17.40
2022-10-20T08:25:18.047Z,17.55
2022-10-20T08:27:51.262Z,17.48
2022-10-20T08:30:23.783Z,18.04
2022-10-20T08:32:52.715Z,18.34
2022-10-20T08:35:20.910Z,18.38
2022-10-20T08:37:48.988Z,18.56
2022-10-20T08:40:21.485Z,18.97
2022-10-20T08:42:50.233Z,19.27
2022-10-20T08:45:21.418Z,19.54
2022-10-20T08:47:51.869Z,19.93
2022-10-20T08:50:21.911Z,20.46
2022-10-20T08:52:54.231Z,20.66
2022-10-20T08:55:29.299Z,20.59
2022-10-20T08:58:01.487Z,20.46
2022-10-20T09:00:31.535Z,20.80
2022-10-20T09:03:11.737Z,20.71
2022-10-20T09:05:43.749Z,21.17
2022-10-20T09:08:11.815Z,21.36
2022-10-20T09:10:46.597Z,21.81
2022-10-20T09:13:21.378Z,21.75
2022-10-20T09:15:50.153Z,21.74
2022-10-20T09:18:18.455Z,21.81
2022-10-20T09:20:51.137Z,21.85
2022-10-20T09:23:40.000Z,22.56
2022-10-20T09:26:30.435Z,22.00
2022-10-20T09:29:15.393Z,22.43
2022-10-20T09:31:45.665Z,22.96
2022-10-20T09:34:25.001Z,22.77
2022-10-20T09:36:57.193Z,22.58
2022-10-20T09:39:28.904Z,22.95
2022-10-20T09:42:05.813Z,23.30
2022-10-20T09:44:38.336Z,23.46
2022-10-20T09:47:06.316Z,23.41
2022-10-20T09:49:38.102Z,23.77
2022-10-20T09:52:18.288Z,23.45
2022-10-20T09:54:51.001Z,23.72
2022-10-20T09:57:22.215Z,23.47
2022-10-20T09:59:53.893Z,23.87
2022-10-20T10:02:33.240Z,24.31
2022-10-20T10:05:16.326Z,24.49
2022-10-20T10:07:44.282Z,24.57
2022-10-20T10:10:27.569Z,25.18
2022-10-20T10:13:00.858Z,24.98
2022-10-20T10:15:31.677Z,24.86
2022-10-20T10:18:00.952Z,24.55
2022-10-20T10:20:39.310Z,24.54
2022-10-20T10:23:23.324Z,24.71
2022-10-20T10:25:52.343Z,25.58
2022-10-20T10:28:29.864Z,25.65
2022-10-20T10:31:25.349Z,25.14
2022-10-20T10:33:58.547Z,25.22
2022-10-20T10:36:35.458Z,25.72
2022-10-20T10:39:05.071Z,25.91
2022-10-20T10:41:59.119Z,26.40
2022-10-20T10:44:40.861Z,26.33
2022-10-20T10:47:23.743Z,26.77
2022-10-20T10:50:02.333Z,26.23
2022-10-20T10:52:43.208Z,26.60
2022-10-20T10:55:43.629Z,26.70
2022-10-20T10:58:21.000Z,26.93
2022-10-20T11:01:07.307Z,27.34
2022-10-20T11:03:48.994Z,26.86
2022-10-20T11:06:28.838Z,27.00
2022-10-20T11:09:08.176Z,26.69
2022-10-20T11:11:45.223Z,26.75
2022-10-20T11:14:24.573Z,27.17
2022-10-20T11:17:04.251Z,27.33
2022-10-20T11:19:48.188Z,27.33
2022-10-20T11:22:26.852Z,27.82
2022-10-20T11:25:06.295Z,27.75
2022-10-20T11:27:37.982Z,28.02
2022-10-20T11:30:16.401Z,27.84
2022-10-20T11:32:48.642Z,27.94
2022-10-20T11:35:25.357Z,28.07
2022-10-20T11:37:58.222Z,27.80
2022-10-20T11:40:31.710Z,27.90
2022-10-20T11:43:10.203Z,27.89
2022-10-20T11:45:46.036Z,28.01
2022-10-20T11:48:21.025Z,28.35
2022-10-20T11:51:07.854Z,28.36
2022-10-20T11:53:45.731Z,28.74
2022-10-20T11:56:29.287Z,28.43
2022-10-20T11:59:36.424Z,28.54
2022-10-20T12:02:29.571Z,28.57
2022-10-20T12:05:32.881Z,28.17
2022-10-20T12:08:36.167Z,27.88
2022-10-20T12:11:10.740Z,27.97
2022-10-20T12:13:47.403Z,28.46
2022-10-20T12:16:48.519Z,28.35
2022-10-20T12:19:18.727Z,28.39
2022-10-20T12:21:56.221Z,28.42
2022-10-20T12:24:35.377Z,28.14
2022-10-20T12:27:25.781Z,28.59
2022-10-20T12:29:57.844Z,28.22
2022-10-20T12:32:53.727Z,27.90
2022-10-20T12:35:31.522Z,27.68
2022-10-20T12:38:02.481Z,27.77
2022-10-20T12:40:41.572Z,28.09
2022-10-20T12:43:25.660Z,28.16
2022-10-20T12:45:59.497Z,28.02
2022-10-20T12:48:28.092Z,28.00
2022-10-20T12:51:05.615Z,27.93
2022-10-20T12:53:34.292Z,28.06
2022-10-20T12:56:08.202Z,27.98
2022-10-20T12:58:38.129Z,27.97
2022-10-20T13:01:12.350Z,27.71
2022-10-20T13:03:48.415Z,27.98
2022-10-20T13:06:43.935Z,27.34
2022-10-20T13:09:22.156Z,27.60
2022-10-20T13:12:01.791Z,27.48
2022-10-20T13:14:36.973Z,27.69
2022-10-20T13:17:20.151Z,27.48
2022-10-20T13:20:00.386Z,27.62
2022-10-20T13:22:43.115Z,27.27
2022-10-20T13:25:20.757Z,27.42
2022-10-20T13:27:51.271Z,27.33
2022-10-20T13:30:23.642Z,27.71
2022-10-20T13:33:18.250Z,27.53
2022-10-20T13:35:58.293Z,27.73
2022-10-20T13:38:33.395Z,27.58
2022-10-20T13:41:07.820Z,26.85
2022-10-20T13:43:47.954Z,26.41
2022-10-20T13:46:35.491Z,26.48
2022-10-20T13:49:19.241Z,26.55
2022-10-20T13:51:52.446Z,26.20
2022-10-20T13:54:25.350Z,26.42
2022-10-20T13:56:54.684Z,26.50
2022-10-20T13:59:25.947Z,26.21
2022-10-20T14:01:57.244Z,26.43
2022-10-20T14:04:26.865Z,26.22
2022-10-20T14:06:55.301Z,26.07
2022-10-20T14:09:25.151Z,25.81
2022-10-20T14:11:57.216Z,25.39
2022-10-20T14:14:28.422Z,25.25
2022-10-20T14:16:59.454Z,25.21
2022-10-20T14:19:28.844Z,24.68
2022-10-20T14:21:59.313Z,24.76
2022-10-20T14:24:33.990Z,24.77
2022-10-20T14:27:04.242Z,24.54
2022-10-20T14:29:36.078Z,24.54
2022-10-20T14:32:04.364Z,24.17
2022-10-20T14:34:35.965Z,23.87
2022-10-20T14:37:05.806Z,23.57
2022-10-20T14:39:39.442Z,23.93
2022-10-20T14:42:21.746Z,24.03
2022-10-20T14:44:53.024Z,23.36
2022-10-20T14:47:22.420Z,23.09
2022-10-20T14:49:52.852Z,22.99
2022-10-20T14:52:24.243Z,22.92
2022-10-20T14:54:52.648Z,22.79
2022-10-20T14:57:44.467Z,22.29
2022-10-20T15:00:29.566Z,22.52
2022-10-20T15:02:58.843Z,22.22
2022-10-20T15:05:36.213Z,22.05
2022-10-20T15:08:18.863Z,21.86
2022-10-20T15:10:46.966Z,21.58
2022-10-20T15:13:28.395Z,21.36
2022-10-20T15:15:59.078Z,21.18
2022-10-20T15:18:28.615Z,20.88
2022-10-20T15:20:57.545Z,20.60
2022-10-20T15:23:27.309Z,20.46
2022-10-20T15:25:58.837Z,20.17
2022-10-20T15:28:38.438Z,19.90
2022-10-20T15:31:19.771Z,19.76
2022-10-20T15:33:48.061Z,19.52
2022-10-20T15:36:20.675Z,19.16
2022-10-20T15:38:48.763Z,18.96
2022-10-20T15:41:18.228Z,18.84
2022-10-20T15:43:46.541Z,18.63
2022-10-20T15:46:17.066Z,18.44
2022-10-20T15:48:45.339Z,18.38
2022-10-20T15:51:17.305Z,18.21
2022-10-20T15:53:46.045Z,18.18
2022-10-20T15:56:13.925Z,18.03
2022-10-20T15:58:41.892Z,17.77
2022-10-20T16:01:12.609Z,17.54
2022-10-20T16:03:43.401Z,17.34
2022-10-20T16:06:13.439Z,17.34
2022-10-20T16:08:42.182Z,17.11
2022-10-20T16:11:11.521Z,17.06
2022-10-20T16:13:39.692Z,16.94
2022-10-20T16:16:09.508Z,16.84
2022-10-20T16:18:37.524Z,16.71
2022-10-20T16:21:07.740Z,16.59
2022-10-20T16:23:40.617Z,16.66
2022-10-20T16:26:13.223Z,16.35
2022-10-20T16:28:41.809Z,16.29
2022-10-20T16:31:11.531Z,16.21
2022-10-20T16:33:39.519Z,16.03
2022-10-20T16:36:11.466Z,16.03
2022-10-20T16:38:40.477Z,15.91
2022-10-20T16:41:10.643Z,15.67
2022-10-20T16:43:39.774Z,15.60
2022-10-20T16:46:09.100Z,15.63
2022-10-20T16:48:39.013Z,15.59
2022-10-20T16:51:11.642Z,15.57
2022-10-20T16:53:40.227Z,15.56
2022-10-20T16:56:09.124Z,15.52
2022-10-20T16:58:37.158Z,15.28
2022-10-20T17:01:08.504Z,15.00
2022-10-20T17:03:36.789Z,14.93
2022-10-20T17:06:07.028Z,14.82
2022-10-20T17:08:37.880Z,14.88
2022-10-20T17:11:08.002Z,14.88
2022-10-20T17:13:37.258Z,14.79
2022-10-20T17:16:06.710Z,14.72
2022-10-20T17:18:34.809Z,14.60
2022-10-20T17:21:03.013Z,14.54
2022-10-20T17:23:33.996Z,14.41
2022-10-20T17:26:07.266Z,14.26
2022-10-20T17:28:37.150Z,14.26
2022-10-20T17:31:07.320Z,14.26
2022-10-20T17:33:35.862Z,14.02
2022-10-20T17:36:03.844Z,14.06
2022-10-20T17:38:32.060Z,13.95
2022-10-20T17:41:05.782Z,13.80
2022-10-20T17:43:34.406Z,13.70
2022-10-20T17:46:04.604Z,13.70
2022-10-20T17:48:33.277Z,13.67
2022-10-20T17:51:02.758Z,13.55
2022-10-20T17:53:32.458Z,13.44
2022-10-20T17:56:02.343Z,13.40
2022-10-20T17:58:31.845Z,13.51
2022-10-20T18:01:08.800Z,13.48
2022-10-20T18:03:36.968Z,13.48
2022-10-20T18:06:09.494Z,13.33
2022-10-20T18:08:37.570Z,13.31
2022-10-20T18:11:09.530Z,13.30
2022-10-20T18:13:40.457Z,13.32
2022-10-20T18:16:09.262Z,13.17
2022-10-20T18:18:37.494Z,13.08
2022-10-20T18:21:06.384Z,13.28
2022-10-20T18:23:36.539Z,13.15
2022-10-20T18:26:09.285Z,13.02
2022-10-20T18:28:41.949Z,12.93
2022-10-20T18:31:17.269Z,12.77
2022-10-20T18:33:45.828Z,12.87
2022-10-20T18:36:15.838Z,12.80
2022-10-20T18:38:45.373Z,12.81
2022-10-20T18:41:15.481Z,12.66
2022-10-20T18:43:46.466Z,12.44
2022-10-20T18:46:15.846Z,12.36
2022-10-20T18:48:44.165Z,12.41
2022-10-20T18:51:13.814Z,12.30
2022-10-20T18:53:43.490Z,12.14
2022-10-20T18:56:14.805Z,12.06
2022-10-20T18:58:50.360Z,12.01
2022-10-20T19:01:21.075Z,12.06
2022-10-20T19:03:50.553Z,11.96
2022-10-20T19:06:21.932Z,11.89
2022-10-20T19:08:52.805Z,11.85
2022-10-20T19:11:21.998Z,11.80
2022-10-20T19:13:51.325Z,11.77
2022-10-20T19:16:21.236Z,11.73
2022-10-20T19:18:51.577Z,11.75
2022-10-20T19:23:52.296Z,11.66
2022-10-20T19:26:22.104Z,11.64
2022-10-20T19:28:58.436Z,11.60
2022-10-20T19:31:29.615Z,11.53
2022-10-20T19:33:59.655Z,11.51
2022-10-20T19:36:29.013Z,11.42
2022-10-20T19:38:57.613Z,11.41
2022-10-20T19:41:25.655Z,11.43
2022-10-20T19:43:55.074Z,11.38
2022-10-20T19:46:23.925Z,11.31
2022-10-20T19:48:52.140Z,11.32
2022-10-20T19:51:21.113Z,11.35
2022-10-20T19:53:49.732Z,11.24
2022-10-20T19:56:18.007Z,11.16
2022-10-20T19:58:48.401Z,11.16
2022-10-20T20:01:18.006Z,11.17
2022-10-20T20:03:46.324Z,11.08
2022-10-20T20:06:17.196Z,11.00
2022-10-20T20:08:46.685Z,10.98
2022-10-20T20:11:23.679Z,10.97
2022-10-20T20:13:52.040Z,10.93
2022-10-20T20:16:21.886Z,10.92
2022-10-20T20:18:50.172Z,10.93
2022-10-20T20:21:18.757Z,10.79
2022-10-20T20:23:58.903Z,10.73
2022-10-20T20:26:28.140Z,10.68
2022-10-20T20:28:57.159Z,10.66
2022-10-20T20:31:27.993Z,10.61
2022-10-20T20:33:57.763Z,10.56
2022-10-20T20:36:27.752Z,10.52
2022-10-20T20:38:57.863Z,10.47
2022-10-20T20:41:27.632Z,10.69
2022-10-20T20:43:55.800Z,10.77
2022-10-20T20:46:29.254Z,10.70
2022-10-20T20:48:57.648Z,10.73
2022-10-20T20:51:27.121Z,10.81
2022-10-20T20:53:55.033Z,10.80
2022-10-20T20:56:24.619Z,10.78
2022-10-20T20:58:55.640Z,10.72
2022-10-20T21:01:24.781Z,10.84
2022-10-20T21:03:55.792Z,10.71
2022-10-20T21:06:33.139Z,10.68
2022-10-20T21:09:02.553Z,10.67
2022-10-20T21:11:30.946Z,10.63
2022-10-20T21:13:59.905Z,10.61
2022-10-20T21:16:29.288Z,10.57
2022-10-20T21:19:00.419Z,10.61
2022-10-20T21:21:30.386Z,10.61
2022-10-20T21:23:59.238Z,10.59
2022-10-20T21:26:30.092Z,10.59
2022-10-20T21:28:58.120Z,10.48
2022-10-20T21:31:27.938Z,10.45
2022-10-20T21:33:58.979Z,10.44
2022-10-20T21:36:29.585Z,10.39
2022-10-20T21:38:57.578Z,10.45
2022-10-20T21:41:27.143Z,10.33
2022-10-20T21:43:56.492Z,10.25
2022-10-20T21:46:27.222Z,10.25
2022-10-20T21:48:58.928Z,10.22
2022-10-20T21:51:30.199Z,10.16
2022-10-20T21:53:59.863Z,10.10
2022-10-20T21:56:28.325Z,10.07
2022-10-20T21:58:56.840Z,9.96
2022-10-20T22:01:26.703Z,9.95
2022-10-20T22:03:55.273Z,9.93
2022-10-20T22:06:24.947Z,9.87
2022-10-20T22:08:56.453Z,9.90
2022-10-20T22:11:26.653Z,9.85
2022-10-20T22:13:55.247Z,9.86
2022-10-20T22:16:25.119Z,9.91
2022-10-20T22:18:56.285Z,9.75
2022-10-20T22:21:24.245Z,9.69
2022-10-20T22:23:56.047Z,9.68
2022-10-20T22:26:25.743Z,9.67
2022-10-20T22:28:54.235Z,9.67
2022-10-20T22:31:23.023Z,9.64
2022-10-20T22:33:51.687Z,9.62
2022-10-20T22:36:20.613Z,9.60
2022-10-20T22:38:48.659Z,9.62
2022-10-20T22:41:18.560Z,9.58
2022-10-20T22:43:46.583Z,9.53
2022-10-20T22:46:15.825Z,9.50
2022-10-20T22:48:44.165Z,9.50
2022-10-20T22:51:12.401Z,9.45
2022-10-20T22:53:41.308Z,9.44
2022-10-20T22:56:12.151Z,9.44
2022-10-20T22:58:42.242Z,9.35
2022-10-20T23:01:11.600Z,9.33
2022-10-20T23:03:39.981Z,9.35
2022-10-20T23:06:09.785Z,9.30
2022-10-20T23:08:41.870Z,9.38
2022-10-20T23:11:10.369Z,9.35
2022-10-20T23:13:38.346Z,9.38
2022-10-20T23:16:08.332Z,9.40
2022-10-20T23:18:36.641Z,9.41
2022-10-20T23:21:05.313Z,9.47
2022-10-20T23:23:33.509Z,9.42
2022-10-20T23:26:03.818Z,9.32
2022-10-20T23:28:33.020Z,9.25
2022-10-20T23:31:10.372Z,9.20
2022-10-20T23:33:38.801Z,9.24
2022-10-20T23:36:07.365Z,9.14
2022-10-20T23:38:35.753Z,9.05
2022-10-20T23:41:04.138Z,9.15
2022-10-20T23:43:32.416Z,9.08
2022-10-20T23:46:00.407Z,9.12
2022-10-20T23:48:29.756Z,9.19
2022-10-20T23:50:58.253Z,9.10
2022-10-20T23:53:26.238Z,9.08
2022-10-20T23:55:54.240Z,9.15
2022-10-20T23:58:23.332Z,9.04
